sensor_id;sensor_type;location;lat;lon;timestamp;P1;durP1;ratioP1;P2;durP2;ratioP2
59824;SDS011;45703;50.898;6.054;2024-01-06T00:01:45;13.95;;;6.97;;
59824;SDS011;45703;50.898;6.054;2024-01-06T00:04:11;13.82;;;7.47;;
59824;SDS011;45703;50.898;6.054;2024-01-06T00:06:36;13.82;;;7.72;;
59824;SDS011;45703;50.898;6.054;2024-01-06T00:09:01;15.25;;;8.55;;
59824;SDS011;45703;50.898;6.054;2024-01-06T00:11:27;17.08;;;8.85;;
59824;SDS011;45703;50.898;6.054;2024-01-06T00:13:52;14.57;;;8.35;;
59824;SDS011;45703;50.898;6.054;2024-01-06T00:16:18;15.82;;;7.85;;
59824;SDS011;45703;50.898;6.054;2024-01-06T00:18:44;16.58;;;9.05;;
59824;SDS011;45703;50.898;6.054;2024-01-06T00:21:10;19.65;;;9.13;;
59824;SDS011;45703;50.898;6.054;2024-01-06T00:23:36;17.63;;;8.90;;
59824;SDS011;45703;50.898;6.054;2024-01-06T00:26:01;16.13;;;8.90;;
59824;SDS011;45703;50.898;6.054;2024-01-06T00:28:27;16.50;;;9.15;;
59824;SDS011;45703;50.898;6.054;2024-01-06T00:30:52;16.30;;;9.68;;
59824;SDS011;45703;50.898;6.054;2024-01-06T00:33:18;15.98;;;8.68;;
59824;SDS011;45703;50.898;6.054;2024-01-06T00:35:43;17.85;;;9.82;;
59824;SDS011;45703;50.898;6.054;2024-01-06T00:38:09;19.27;;;10.13;;
59824;SDS011;45703;50.898;6.054;2024-01-06T00:40:34;20.02;;;10.77;;
59824;SDS011;45703;50.898;6.054;2024-01-06T00:43:00;19.77;;;10.30;;
59824;SDS011;45703;50.898;6.054;2024-01-06T00:45:25;19.48;;;10.60;;
59824;SDS011;45703;50.898;6.054;2024-01-06T00:47:50;19.40;;;11.35;;
59824;SDS011;45703;50.898;6.054;2024-01-06T00:50:17;22.08;;;11.85;;
59824;SDS011;45703;50.898;6.054;2024-01-06T00:52:44;20.35;;;11.20;;
59824;SDS011;45703;50.898;6.054;2024-01-06T00:55:10;20.67;;;11.18;;
59824;SDS011;45703;50.898;6.054;2024-01-06T00:57:35;21.13;;;11.35;;
59824;SDS011;45703;50.898;6.054;2024-01-06T01:00:00;20.13;;;10.73;;
59824;SDS011;45703;50.898;6.054;2024-01-06T01:02:26;20.27;;;10.93;;
59824;SDS011;45703;50.898;6.054;2024-01-06T01:04:51;19.45;;;10.93;;
59824;SDS011;45703;50.898;6.054;2024-01-06T01:07:17;22.17;;;10.60;;
59824;SDS011;45703;50.898;6.054;2024-01-06T01:09:43;18.40;;;10.18;;
59824;SDS011;45703;50.898;6.054;2024-01-06T01:12:08;17.25;;;10.23;;
59824;SDS011;45703;50.898;6.054;2024-01-06T01:14:33;23.75;;;11.82;;
59824;SDS011;45703;50.898;6.054;2024-01-06T01:16:59;24.55;;;12.85;;
59824;SDS011;45703;50.898;6.054;2024-01-06T01:19:24;22.80;;;12.73;;
59824;SDS011;45703;50.898;6.054;2024-01-06T01:21:49;21.58;;;11.63;;
59824;SDS011;45703;50.898;6.054;2024-01-06T01:24:18;23.50;;;13.27;;
59824;SDS011;45703;50.898;6.054;2024-01-06T01:26:43;24.25;;;12.68;;
59824;SDS011;45703;50.898;6.054;2024-01-06T01:29:09;22.10;;;11.70;;
59824;SDS011;45703;50.898;6.054;2024-01-06T01:31:34;24.02;;;12.25;;
59824;SDS011;45703;50.898;6.054;2024-01-06T01:33:59;24.35;;;12.82;;
59824;SDS011;45703;50.898;6.054;2024-01-06T01:36:25;26.02;;;12.98;;
59824;SDS011;45703;50.898;6.054;2024-01-06T01:38:50;23.95;;;12.57;;
59824;SDS011;45703;50.898;6.054;2024-01-06T01:41:16;22.00;;;11.43;;
59824;SDS011;45703;50.898;6.054;2024-01-06T01:43:41;22.90;;;11.63;;
59824;SDS011;45703;50.898;6.054;2024-01-06T01:46:06;23.10;;;12.25;;
59824;SDS011;45703;50.898;6.054;2024-01-06T01:48:32;21.92;;;11.77;;
59824;SDS011;45703;50.898;6.054;2024-01-06T01:50:59;19.88;;;11.85;;
59824;SDS011;45703;50.898;6.054;2024-01-06T01:53:24;23.85;;;12.50;;
59824;SDS011;45703;50.898;6.054;2024-01-06T01:55:51;22.65;;;13.05;;
59824;SDS011;45703;50.898;6.054;2024-01-06T01:58:18;20.20;;;11.98;;
59824;SDS011;45703;50.898;6.054;2024-01-06T02:00:43;24.15;;;13.02;;
59824;SDS011;45703;50.898;6.054;2024-01-06T02:03:09;22.98;;;11.82;;
59824;SDS011;45703;50.898;6.054;2024-01-06T02:05:36;22.20;;;11.82;;
59824;SDS011;45703;50.898;6.054;2024-01-06T02:08:01;19.42;;;10.50;;
59824;SDS011;45703;50.898;6.054;2024-01-06T02:10:27;20.35;;;10.82;;
59824;SDS011;45703;50.898;6.054;2024-01-06T02:12:53;20.35;;;10.82;;
59824;SDS011;45703;50.898;6.054;2024-01-06T02:15:18;17.70;;;9.68;;
59824;SDS011;45703;50.898;6.054;2024-01-06T02:17:44;17.42;;;9.05;;
59824;SDS011;45703;50.898;6.054;2024-01-06T02:20:09;18.42;;;9.80;;
59824;SDS011;45703;50.898;6.054;2024-01-06T02:22:37;17.65;;;9.43;;
59824;SDS011;45703;50.898;6.054;2024-01-06T02:25:03;18.48;;;9.48;;
59824;SDS011;45703;50.898;6.054;2024-01-06T02:27:37;16.50;;;8.50;;
59824;SDS011;45703;50.898;6.054;2024-01-06T02:30:02;13.63;;;7.63;;
59824;SDS011;45703;50.898;6.054;2024-01-06T02:32:28;16.52;;;8.15;;
59824;SDS011;45703;50.898;6.054;2024-01-06T02:34:53;15.48;;;8.68;;
59824;SDS011;45703;50.898;6.054;2024-01-06T02:37:18;16.63;;;8.25;;
59824;SDS011;45703;50.898;6.054;2024-01-06T02:39:44;15.10;;;7.68;;
59824;SDS011;45703;50.898;6.054;2024-01-06T02:42:09;17.35;;;9.23;;
59824;SDS011;45703;50.898;6.054;2024-01-06T02:44:35;17.13;;;8.13;;
59824;SDS011;45703;50.898;6.054;2024-01-06T02:47:00;16.90;;;7.85;;
59824;SDS011;45703;50.898;6.054;2024-01-06T02:49:25;13.68;;;7.78;;
59824;SDS011;45703;50.898;6.054;2024-01-06T02:51:51;16.05;;;8.13;;
59824;SDS011;45703;50.898;6.054;2024-01-06T02:54:16;14.73;;;8.32;;
59824;SDS011;45703;50.898;6.054;2024-01-06T02:56:41;16.92;;;8.65;;
59824;SDS011;45703;50.898;6.054;2024-01-06T02:59:07;17.20;;;7.85;;
59824;SDS011;45703;50.898;6.054;2024-01-06T03:01:32;15.98;;;7.05;;
59824;SDS011;45703;50.898;6.054;2024-01-06T03:03:57;15.77;;;7.60;;
59824;SDS011;45703;50.898;6.054;2024-01-06T03:06:23;16.35;;;8.07;;
59824;SDS011;45703;50.898;6.054;2024-01-06T03:08:48;15.88;;;8.35;;
59824;SDS011;45703;50.898;6.054;2024-01-06T03:11:14;15.88;;;7.28;;
59824;SDS011;45703;50.898;6.054;2024-01-06T03:13:39;13.60;;;7.45;;
59824;SDS011;45703;50.898;6.054;2024-01-06T03:16:05;14.57;;;7.15;;
59824;SDS011;45703;50.898;6.054;2024-01-06T03:18:30;13.80;;;7.10;;
59824;SDS011;45703;50.898;6.054;2024-01-06T03:20:56;12.65;;;5.38;;
59824;SDS011;45703;50.898;6.054;2024-01-06T03:23:21;10.48;;;5.40;;
59824;SDS011;45703;50.898;6.054;2024-01-06T03:25:46;11.50;;;5.50;;
59824;SDS011;45703;50.898;6.054;2024-01-06T03:28:12;14.32;;;6.57;;
59824;SDS011;45703;50.898;6.054;2024-01-06T03:30:37;13.63;;;6.75;;
59824;SDS011;45703;50.898;6.054;2024-01-06T03:33:02;14.27;;;7.03;;
59824;SDS011;45703;50.898;6.054;2024-01-06T03:35:28;15.60;;;6.97;;
59824;SDS011;45703;50.898;6.054;2024-01-06T03:37:53;15.85;;;7.90;;
59824;SDS011;45703;50.898;6.054;2024-01-06T03:40:20;16.33;;;7.40;;
59824;SDS011;45703;50.898;6.054;2024-01-06T03:42:45;15.00;;;7.07;;
59824;SDS011;45703;50.898;6.054;2024-01-06T03:45:10;16.55;;;7.90;;
59824;SDS011;45703;50.898;6.054;2024-01-06T03:47:36;16.25;;;7.63;;
59824;SDS011;45703;50.898;6.054;2024-01-06T03:50:01;17.83;;;8.48;;
59824;SDS011;45703;50.898;6.054;2024-01-06T03:52:26;18.77;;;8.80;;
59824;SDS011;45703;50.898;6.054;2024-01-06T03:54:52;21.52;;;9.98;;
59824;SDS011;45703;50.898;6.054;2024-01-06T03:57:17;21.10;;;9.07;;
59824;SDS011;45703;50.898;6.054;2024-01-06T03:59:42;18.52;;;9.07;;
59824;SDS011;45703;50.898;6.054;2024-01-06T04:02:08;18.75;;;9.48;;
59824;SDS011;45703;50.898;6.054;2024-01-06T04:04:33;20.45;;;8.93;;
59824;SDS011;45703;50.898;6.054;2024-01-06T04:06:58;20.42;;;9.60;;
59824;SDS011;45703;50.898;6.054;2024-01-06T04:09:26;20.30;;;9.35;;
59824;SDS011;45703;50.898;6.054;2024-01-06T04:11:51;20.48;;;9.48;;
59824;SDS011;45703;50.898;6.054;2024-01-06T04:14:17;18.55;;;8.77;;
59824;SDS011;45703;50.898;6.054;2024-01-06T04:16:42;20.65;;;9.98;;
59824;SDS011;45703;50.898;6.054;2024-01-06T04:19:07;18.13;;;9.23;;
59824;SDS011;45703;50.898;6.054;2024-01-06T04:21:33;19.13;;;9.43;;
59824;SDS011;45703;50.898;6.054;2024-01-06T04:23:59;18.00;;;9.05;;
59824;SDS011;45703;50.898;6.054;2024-01-06T04:26:24;18.77;;;8.43;;
59824;SDS011;45703;50.898;6.054;2024-01-06T04:28:50;21.90;;;9.32;;
59824;SDS011;45703;50.898;6.054;2024-01-06T04:31:15;20.05;;;9.77;;
59824;SDS011;45703;50.898;6.054;2024-01-06T04:33:40;18.38;;;8.85;;
59824;SDS011;45703;50.898;6.054;2024-01-06T04:36:06;18.90;;;8.13;;
59824;SDS011;45703;50.898;6.054;2024-01-06T04:38:32;20.35;;;8.35;;
59824;SDS011;45703;50.898;6.054;2024-01-06T04:40:57;20.45;;;9.88;;
59824;SDS011;45703;50.898;6.054;2024-01-06T04:43:23;20.25;;;9.60;;
59824;SDS011;45703;50.898;6.054;2024-01-06T04:45:48;20.42;;;9.82;;
59824;SDS011;45703;50.898;6.054;2024-01-06T04:48:15;20.65;;;9.85;;
59824;SDS011;45703;50.898;6.054;2024-01-06T04:50:40;22.08;;;10.35;;
59824;SDS011;45703;50.898;6.054;2024-01-06T04:53:05;20.92;;;9.57;;
59824;SDS011;45703;50.898;6.054;2024-01-06T04:55:31;20.35;;;9.85;;
59824;SDS011;45703;50.898;6.054;2024-01-06T04:57:56;21.20;;;9.35;;
59824;SDS011;45703;50.898;6.054;2024-01-06T05:00:22;20.50;;;9.75;;
59824;SDS011;45703;50.898;6.054;2024-01-06T05:02:47;19.85;;;9.15;;
59824;SDS011;45703;50.898;6.054;2024-01-06T05:05:13;25.23;;;11.25;;
59824;SDS011;45703;50.898;6.054;2024-01-06T05:07:38;22.52;;;11.18;;
59824;SDS011;45703;50.898;6.054;2024-01-06T05:10:04;22.38;;;10.68;;
59824;SDS011;45703;50.898;6.054;2024-01-06T05:12:30;25.13;;;10.73;;
59824;SDS011;45703;50.898;6.054;2024-01-06T05:14:55;20.77;;;9.90;;
59824;SDS011;45703;50.898;6.054;2024-01-06T05:17:20;19.95;;;10.23;;
59824;SDS011;45703;50.898;6.054;2024-01-06T05:19:46;20.90;;;9.98;;
59824;SDS011;45703;50.898;6.054;2024-01-06T05:22:11;23.77;;;10.63;;
59824;SDS011;45703;50.898;6.054;2024-01-06T05:24:36;21.35;;;9.95;;
59824;SDS011;45703;50.898;6.054;2024-01-06T05:27:02;21.58;;;10.73;;
59824;SDS011;45703;50.898;6.054;2024-01-06T05:29:27;24.92;;;11.40;;
59824;SDS011;45703;50.898;6.054;2024-01-06T05:31:53;23.85;;;10.10;;
59824;SDS011;45703;50.898;6.054;2024-01-06T05:34:18;23.48;;;11.52;;
59824;SDS011;45703;50.898;6.054;2024-01-06T05:36:44;22.48;;;10.52;;
59824;SDS011;45703;50.898;6.054;2024-01-06T05:39:09;24.67;;;11.60;;
59824;SDS011;45703;50.898;6.054;2024-01-06T05:41:38;23.92;;;11.60;;
59824;SDS011;45703;50.898;6.054;2024-01-06T05:44:04;23.00;;;11.43;;
59824;SDS011;45703;50.898;6.054;2024-01-06T05:46:29;23.88;;;10.48;;
59824;SDS011;45703;50.898;6.054;2024-01-06T05:48:55;26.77;;;12.27;;
59824;SDS011;45703;50.898;6.054;2024-01-06T05:51:21;21.45;;;10.48;;
59824;SDS011;45703;50.898;6.054;2024-01-06T05:53:46;22.42;;;10.82;;
59824;SDS011;45703;50.898;6.054;2024-01-06T05:56:21;23.00;;;11.88;;
59824;SDS011;45703;50.898;6.054;2024-01-06T05:58:48;22.27;;;11.00;;
59824;SDS011;45703;50.898;6.054;2024-01-06T06:01:14;21.67;;;10.07;;
59824;SDS011;45703;50.898;6.054;2024-01-06T06:03:39;20.23;;;9.77;;
59824;SDS011;45703;50.898;6.054;2024-01-06T06:06:04;21.00;;;9.88;;
59824;SDS011;45703;50.898;6.054;2024-01-06T06:08:30;21.80;;;10.40;;
59824;SDS011;45703;50.898;6.054;2024-01-06T06:10:55;26.92;;;11.88;;
59824;SDS011;45703;50.898;6.054;2024-01-06T06:13:27;20.83;;;9.38;;
59824;SDS011;45703;50.898;6.054;2024-01-06T06:15:53;20.40;;;8.70;;
59824;SDS011;45703;50.898;6.054;2024-01-06T06:18:19;21.13;;;10.43;;
59824;SDS011;45703;50.898;6.054;2024-01-06T06:20:45;20.88;;;10.48;;
59824;SDS011;45703;50.898;6.054;2024-01-06T06:23:10;25.35;;;10.68;;
59824;SDS011;45703;50.898;6.054;2024-01-06T06:25:37;21.65;;;10.05;;
59824;SDS011;45703;50.898;6.054;2024-01-06T06:28:03;21.42;;;8.80;;
59824;SDS011;45703;50.898;6.054;2024-01-06T06:30:29;20.67;;;9.07;;
59824;SDS011;45703;50.898;6.054;2024-01-06T06:32:54;18.48;;;8.30;;
59824;SDS011;45703;50.898;6.054;2024-01-06T06:35:20;18.65;;;8.50;;
59824;SDS011;45703;50.898;6.054;2024-01-06T06:37:45;20.55;;;8.82;;
59824;SDS011;45703;50.898;6.054;2024-01-06T06:40:10;20.85;;;8.15;;
59824;SDS011;45703;50.898;6.054;2024-01-06T06:42:36;19.20;;;9.02;;
59824;SDS011;45703;50.898;6.054;2024-01-06T06:45:02;18.42;;;8.00;;
59824;SDS011;45703;50.898;6.054;2024-01-06T06:47:27;13.88;;;6.18;;
59824;SDS011;45703;50.898;6.054;2024-01-06T06:49:52;17.20;;;7.38;;
59824;SDS011;45703;50.898;6.054;2024-01-06T06:52:18;19.13;;;8.15;;
59824;SDS011;45703;50.898;6.054;2024-01-06T06:54:43;20.95;;;8.43;;
59824;SDS011;45703;50.898;6.054;2024-01-06T06:57:08;16.40;;;7.85;;
59824;SDS011;45703;50.898;6.054;2024-01-06T06:59:34;16.30;;;7.93;;
59824;SDS011;45703;50.898;6.054;2024-01-06T07:01:59;19.27;;;8.00;;
59824;SDS011;45703;50.898;6.054;2024-01-06T07:04:24;19.67;;;8.95;;
59824;SDS011;45703;50.898;6.054;2024-01-06T07:06:51;17.40;;;7.72;;
59824;SDS011;45703;50.898;6.054;2024-01-06T07:09:16;20.13;;;8.60;;
59824;SDS011;45703;50.898;6.054;2024-01-06T07:11:42;17.35;;;8.23;;
59824;SDS011;45703;50.898;6.054;2024-01-06T07:14:07;16.13;;;7.75;;
59824;SDS011;45703;50.898;6.054;2024-01-06T07:16:32;19.65;;;8.23;;
59824;SDS011;45703;50.898;6.054;2024-01-06T07:18:58;17.50;;;8.15;;
59824;SDS011;45703;50.898;6.054;2024-01-06T07:21:23;21.25;;;9.48;;
59824;SDS011;45703;50.898;6.054;2024-01-06T07:23:48;19.73;;;9.13;;
59824;SDS011;45703;50.898;6.054;2024-01-06T07:26:14;19.13;;;8.73;;
59824;SDS011;45703;50.898;6.054;2024-01-06T07:28:39;19.15;;;9.50;;
59824;SDS011;45703;50.898;6.054;2024-01-06T07:31:04;20.92;;;9.18;;
59824;SDS011;45703;50.898;6.054;2024-01-06T07:33:30;18.52;;;8.40;;
59824;SDS011;45703;50.898;6.054;2024-01-06T07:35:56;18.45;;;8.35;;
59824;SDS011;45703;50.898;6.054;2024-01-06T07:38:21;17.67;;;8.77;;
59824;SDS011;45703;50.898;6.054;2024-01-06T07:40:47;19.10;;;8.52;;
59824;SDS011;45703;50.898;6.054;2024-01-06T07:43:12;16.73;;;8.10;;
59824;SDS011;45703;50.898;6.054;2024-01-06T07:45:37;16.75;;;8.52;;
59824;SDS011;45703;50.898;6.054;2024-01-06T07:48:03;17.83;;;7.63;;
59824;SDS011;45703;50.898;6.054;2024-01-06T07:50:28;16.65;;;7.93;;
59824;SDS011;45703;50.898;6.054;2024-01-06T07:52:54;20.00;;;8.85;;
59824;SDS011;45703;50.898;6.054;2024-01-06T07:55:19;16.33;;;7.47;;
59824;SDS011;45703;50.898;6.054;2024-01-06T07:57:45;15.38;;;6.97;;
59824;SDS011;45703;50.898;6.054;2024-01-06T08:00:11;16.27;;;7.65;;
59824;SDS011;45703;50.898;6.054;2024-01-06T08:02:40;17.83;;;7.60;;
59824;SDS011;45703;50.898;6.054;2024-01-06T08:05:06;18.42;;;8.43;;
59824;SDS011;45703;50.898;6.054;2024-01-06T08:07:32;17.73;;;8.00;;
59824;SDS011;45703;50.898;6.054;2024-01-06T08:09:57;20.55;;;8.93;;
59824;SDS011;45703;50.898;6.054;2024-01-06T08:12:23;19.30;;;9.48;;
59824;SDS011;45703;50.898;6.054;2024-01-06T08:14:48;19.92;;;9.55;;
59824;SDS011;45703;50.898;6.054;2024-01-06T08:17:14;18.65;;;8.60;;
59824;SDS011;45703;50.898;6.054;2024-01-06T08:19:39;19.02;;;8.48;;
59824;SDS011;45703;50.898;6.054;2024-01-06T08:22:04;17.17;;;7.60;;
59824;SDS011;45703;50.898;6.054;2024-01-06T08:24:30;18.15;;;7.93;;
59824;SDS011;45703;50.898;6.054;2024-01-06T08:26:55;17.67;;;8.05;;
59824;SDS011;45703;50.898;6.054;2024-01-06T08:29:20;16.27;;;7.20;;
59824;SDS011;45703;50.898;6.054;2024-01-06T08:31:46;15.95;;;7.57;;
59824;SDS011;45703;50.898;6.054;2024-01-06T08:34:12;15.70;;;7.40;;
59824;SDS011;45703;50.898;6.054;2024-01-06T08:36:37;19.17;;;8.07;;
59824;SDS011;45703;50.898;6.054;2024-01-06T08:39:03;14.50;;;6.68;;
59824;SDS011;45703;50.898;6.054;2024-01-06T08:41:28;15.57;;;6.57;;
59824;SDS011;45703;50.898;6.054;2024-01-06T08:43:54;18.17;;;7.45;;
59824;SDS011;45703;50.898;6.054;2024-01-06T08:46:19;16.75;;;8.10;;
59824;SDS011;45703;50.898;6.054;2024-01-06T08:48:45;15.05;;;6.97;;
59824;SDS011;45703;50.898;6.054;2024-01-06T08:51:10;13.88;;;6.75;;
59824;SDS011;45703;50.898;6.054;2024-01-06T08:53:35;13.77;;;6.68;;
59824;SDS011;45703;50.898;6.054;2024-01-06T08:56:01;15.13;;;7.07;;
59824;SDS011;45703;50.898;6.054;2024-01-06T08:58:26;16.95;;;8.05;;
59824;SDS011;45703;50.898;6.054;2024-01-06T09:00:52;14.93;;;7.65;;
59824;SDS011;45703;50.898;6.054;2024-01-06T09:03:18;16.77;;;7.45;;
59824;SDS011;45703;50.898;6.054;2024-01-06T09:05:49;14.57;;;7.43;;
59824;SDS011;45703;50.898;6.054;2024-01-06T09:08:16;14.73;;;6.82;;
59824;SDS011;45703;50.898;6.054;2024-01-06T09:10:41;15.10;;;6.72;;
59824;SDS011;45703;50.898;6.054;2024-01-06T09:13:07;13.93;;;6.50;;
59824;SDS011;45703;50.898;6.054;2024-01-06T09:15:33;13.95;;;6.45;;
59824;SDS011;45703;50.898;6.054;2024-01-06T09:17:58;13.10;;;5.95;;
59824;SDS011;45703;50.898;6.054;2024-01-06T09:20:23;13.02;;;5.75;;
59824;SDS011;45703;50.898;6.054;2024-01-06T09:22:49;16.20;;;6.82;;
59824;SDS011;45703;50.898;6.054;2024-01-06T09:25:15;14.70;;;6.32;;
59824;SDS011;45703;50.898;6.054;2024-01-06T09:27:40;13.13;;;6.70;;
59824;SDS011;45703;50.898;6.054;2024-01-06T09:30:05;12.05;;;6.05;;
59824;SDS011;45703;50.898;6.054;2024-01-06T09:32:33;14.50;;;6.45;;
59824;SDS011;45703;50.898;6.054;2024-01-06T09:34:58;15.27;;;6.20;;
59824;SDS011;45703;50.898;6.054;2024-01-06T09:37:23;14.38;;;6.30;;
59824;SDS011;45703;50.898;6.054;2024-01-06T09:39:49;13.52;;;5.93;;
59824;SDS011;45703;50.898;6.054;2024-01-06T09:42:14;11.68;;;5.88;;
59824;SDS011;45703;50.898;6.054;2024-01-06T09:44:40;12.82;;;6.18;;
59824;SDS011;45703;50.898;6.054;2024-01-06T09:47:05;14.27;;;7.13;;
59824;SDS011;45703;50.898;6.054;2024-01-06T09:49:31;13.10;;;5.75;;
59824;SDS011;45703;50.898;6.054;2024-01-06T09:52:01;13.10;;;5.90;;
59824;SDS011;45703;50.898;6.054;2024-01-06T09:54:30;13.77;;;5.85;;
59824;SDS011;45703;50.898;6.054;2024-01-06T09:56:59;12.50;;;6.03;;
59824;SDS011;45703;50.898;6.054;2024-01-06T09:59:26;14.07;;;6.63;;
59824;SDS011;45703;50.898;6.054;2024-01-06T10:01:55;13.35;;;6.13;;
59824;SDS011;45703;50.898;6.054;2024-01-06T10:04:22;14.52;;;6.43;;
59824;SDS011;45703;50.898;6.054;2024-01-06T10:06:48;13.18;;;6.47;;
59824;SDS011;45703;50.898;6.054;2024-01-06T10:09:14;14.05;;;6.35;;
59824;SDS011;45703;50.898;6.054;2024-01-06T10:11:39;13.73;;;6.13;;
59824;SDS011;45703;50.898;6.054;2024-01-06T10:14:06;12.52;;;6.32;;
59824;SDS011;45703;50.898;6.054;2024-01-06T10:16:31;12.65;;;5.82;;
59824;SDS011;45703;50.898;6.054;2024-01-06T10:18:59;14.02;;;6.65;;
59824;SDS011;45703;50.898;6.054;2024-01-06T10:21:24;13.52;;;6.28;;
59824;SDS011;45703;50.898;6.054;2024-01-06T10:23:50;15.15;;;6.85;;
59824;SDS011;45703;50.898;6.054;2024-01-06T10:26:16;14.93;;;6.68;;
59824;SDS011;45703;50.898;6.054;2024-01-06T10:28:42;13.55;;;6.53;;
59824;SDS011;45703;50.898;6.054;2024-01-06T10:31:08;12.20;;;5.45;;
59824;SDS011;45703;50.898;6.054;2024-01-06T10:33:34;12.30;;;5.55;;
59824;SDS011;45703;50.898;6.054;2024-01-06T10:35:59;12.65;;;5.25;;
59824;SDS011;45703;50.898;6.054;2024-01-06T10:38:26;13.40;;;6.93;;
59824;SDS011;45703;50.898;6.054;2024-01-06T10:40:58;12.38;;;6.13;;
59824;SDS011;45703;50.898;6.054;2024-01-06T10:43:32;12.55;;;6.03;;
59824;SDS011;45703;50.898;6.054;2024-01-06T10:46:03;13.55;;;6.07;;
59824;SDS011;45703;50.898;6.054;2024-01-06T10:48:32;12.25;;;5.15;;
59824;SDS011;45703;50.898;6.054;2024-01-06T10:51:00;12.93;;;6.25;;
59824;SDS011;45703;50.898;6.054;2024-01-06T10:53:27;11.52;;;5.60;;
59824;SDS011;45703;50.898;6.054;2024-01-06T10:55:53;14.85;;;6.25;;
59824;SDS011;45703;50.898;6.054;2024-01-06T10:58:19;14.68;;;6.28;;
59824;SDS011;45703;50.898;6.054;2024-01-06T11:00:45;10.75;;;4.85;;
59824;SDS011;45703;50.898;6.054;2024-01-06T11:03:10;12.68;;;5.95;;
59824;SDS011;45703;50.898;6.054;2024-01-06T11:05:38;14.10;;;5.95;;
59824;SDS011;45703;50.898;6.054;2024-01-06T11:08:05;11.90;;;5.68;;
59824;SDS011;45703;50.898;6.054;2024-01-06T11:10:31;12.77;;;5.60;;
59824;SDS011;45703;50.898;6.054;2024-01-06T11:13:21;15.02;;;6.32;;
59824;SDS011;45703;50.898;6.054;2024-01-06T11:15:48;13.38;;;5.63;;
59824;SDS011;45703;50.898;6.054;2024-01-06T11:18:30;12.45;;;5.78;;
59824;SDS011;45703;50.898;6.054;2024-01-06T11:21:17;12.38;;;5.70;;
59824;SDS011;45703;50.898;6.054;2024-01-06T11:23:51;13.63;;;6.03;;
59824;SDS011;45703;50.898;6.054;2024-01-06T11:26:44;11.50;;;5.22;;
59824;SDS011;45703;50.898;6.054;2024-01-06T11:29:10;12.70;;;5.60;;
59824;SDS011;45703;50.898;6.054;2024-01-06T11:31:36;13.10;;;5.70;;
59824;SDS011;45703;50.898;6.054;2024-01-06T11:34:12;11.65;;;5.05;;
59824;SDS011;45703;50.898;6.054;2024-01-06T11:36:39;14.52;;;6.60;;
59824;SDS011;45703;50.898;6.054;2024-01-06T11:39:05;13.80;;;5.85;;
59824;SDS011;45703;50.898;6.054;2024-01-06T11:41:49;12.95;;;5.93;;
59824;SDS011;45703;50.898;6.054;2024-01-06T11:44:22;13.30;;;5.35;;
59824;SDS011;45703;50.898;6.054;2024-01-06T11:46:47;11.20;;;4.85;;
59824;SDS011;45703;50.898;6.054;2024-01-06T11:49:18;13.48;;;5.25;;
59824;SDS011;45703;50.898;6.054;2024-01-06T11:54:11;14.40;;;5.78;;
59824;SDS011;45703;50.898;6.054;2024-01-06T11:56:37;11.55;;;5.05;;
59824;SDS011;45703;50.898;6.054;2024-01-06T11:59:03;14.35;;;6.13;;
59824;SDS011;45703;50.898;6.054;2024-01-06T12:01:35;11.20;;;5.35;;
59824;SDS011;45703;50.898;6.054;2024-01-06T12:04:01;12.25;;;5.60;;
59824;SDS011;45703;50.898;6.054;2024-01-06T12:06:28;12.20;;;4.88;;
59824;SDS011;45703;50.898;6.054;2024-01-06T12:09:02;13.02;;;5.18;;
59824;SDS011;45703;50.898;6.054;2024-01-06T12:11:40;11.60;;;4.80;;
59824;SDS011;45703;50.898;6.054;2024-01-06T12:14:06;14.35;;;5.97;;
59824;SDS011;45703;50.898;6.054;2024-01-06T12:16:32;13.82;;;6.03;;
59824;SDS011;45703;50.898;6.054;2024-01-06T12:18:58;14.10;;;5.88;;
59824;SDS011;45703;50.898;6.054;2024-01-06T12:21:25;14.77;;;5.82;;
59824;SDS011;45703;50.898;6.054;2024-01-06T12:23:52;13.13;;;5.97;;
59824;SDS011;45703;50.898;6.054;2024-01-06T12:26:18;13.32;;;6.25;;
59824;SDS011;45703;50.898;6.054;2024-01-06T12:28:47;14.68;;;6.20;;
59824;SDS011;45703;50.898;6.054;2024-01-06T12:31:14;15.13;;;6.82;;
59824;SDS011;45703;50.898;6.054;2024-01-06T12:33:40;18.67;;;7.03;;
59824;SDS011;45703;50.898;6.054;2024-01-06T12:36:08;17.15;;;7.00;;
59824;SDS011;45703;50.898;6.054;2024-01-06T12:38:36;14.32;;;5.97;;
59824;SDS011;45703;50.898;6.054;2024-01-06T12:41:03;15.27;;;6.38;;
59824;SDS011;45703;50.898;6.054;2024-01-06T12:43:29;15.13;;;7.45;;
59824;SDS011;45703;50.898;6.054;2024-01-06T12:45:54;15.93;;;7.20;;
59824;SDS011;45703;50.898;6.054;2024-01-06T12:48:22;14.13;;;6.57;;
59824;SDS011;45703;50.898;6.054;2024-01-06T12:50:47;15.32;;;6.80;;
59824;SDS011;45703;50.898;6.054;2024-01-06T12:53:13;18.95;;;8.43;;
59824;SDS011;45703;50.898;6.054;2024-01-06T12:55:40;17.80;;;8.38;;
59824;SDS011;45703;50.898;6.054;2024-01-06T12:58:05;16.08;;;7.95;;
59824;SDS011;45703;50.898;6.054;2024-01-06T13:00:33;17.80;;;7.55;;
59824;SDS011;45703;50.898;6.054;2024-01-06T13:02:58;15.27;;;7.03;;
59824;SDS011;45703;50.898;6.054;2024-01-06T13:05:24;18.50;;;8.27;;
59824;SDS011;45703;50.898;6.054;2024-01-06T13:07:49;20.45;;;8.90;;
59824;SDS011;45703;50.898;6.054;2024-01-06T13:10:15;16.63;;;7.53;;
59824;SDS011;45703;50.898;6.054;2024-01-06T13:12:40;19.63;;;8.32;;
59824;SDS011;45703;50.898;6.054;2024-01-06T13:15:06;20.75;;;9.82;;
59824;SDS011;45703;50.898;6.054;2024-01-06T13:17:36;18.13;;;8.60;;
59824;SDS011;45703;50.898;6.054;2024-01-06T13:20:04;17.55;;;8.25;;
59824;SDS011;45703;50.898;6.054;2024-01-06T13:22:30;18.10;;;8.20;;
59824;SDS011;45703;50.898;6.054;2024-01-06T13:24:56;20.90;;;8.57;;
59824;SDS011;45703;50.898;6.054;2024-01-06T13:27:22;18.45;;;8.13;;
59824;SDS011;45703;50.898;6.054;2024-01-06T13:29:47;20.23;;;9.52;;
59824;SDS011;45703;50.898;6.054;2024-01-06T13:32:13;20.55;;;8.90;;
59824;SDS011;45703;50.898;6.054;2024-01-06T13:34:40;20.77;;;9.80;;
59824;SDS011;45703;50.898;6.054;2024-01-06T13:37:06;19.17;;;9.52;;
59824;SDS011;45703;50.898;6.054;2024-01-06T13:39:32;22.45;;;10.95;;
59824;SDS011;45703;50.898;6.054;2024-01-06T13:41:57;20.83;;;11.07;;
59824;SDS011;45703;50.898;6.054;2024-01-06T13:44:24;24.58;;;11.02;;
59824;SDS011;45703;50.898;6.054;2024-01-06T13:46:49;22.27;;;9.80;;
59824;SDS011;45703;50.898;6.054;2024-01-06T13:49:16;21.17;;;9.82;;
59824;SDS011;45703;50.898;6.054;2024-01-06T13:51:42;20.67;;;9.60;;
59824;SDS011;45703;50.898;6.054;2024-01-06T13:54:08;21.80;;;10.38;;
59824;SDS011;45703;50.898;6.054;2024-01-06T13:56:35;20.77;;;9.93;;
59824;SDS011;45703;50.898;6.054;2024-01-06T13:59:00;20.65;;;9.30;;
59824;SDS011;45703;50.898;6.054;2024-01-06T14:01:26;18.08;;;9.15;;
59824;SDS011;45703;50.898;6.054;2024-01-06T14:03:51;16.80;;;8.48;;
59824;SDS011;45703;50.898;6.054;2024-01-06T14:06:23;19.05;;;8.60;;
59824;SDS011;45703;50.898;6.054;2024-01-06T14:08:50;20.08;;;11.35;;
59824;SDS011;45703;50.898;6.054;2024-01-06T14:11:17;21.38;;;11.55;;
59824;SDS011;45703;50.898;6.054;2024-01-06T14:13:43;17.05;;;9.98;;
59824;SDS011;45703;50.898;6.054;2024-01-06T14:16:13;18.27;;;9.57;;
59824;SDS011;45703;50.898;6.054;2024-01-06T14:18:38;19.33;;;9.88;;
59824;SDS011;45703;50.898;6.054;2024-01-06T14:21:04;16.65;;;8.57;;
59824;SDS011;45703;50.898;6.054;2024-01-06T14:23:29;20.10;;;10.43;;
59824;SDS011;45703;50.898;6.054;2024-01-06T14:25:57;20.95;;;10.80;;
59824;SDS011;45703;50.898;6.054;2024-01-06T14:28:23;20.27;;;10.38;;